createdAt,value
2019-03-28T00:01:37.233Z,21.77
2019-03-28T00:04:06.162Z,18.73
2019-03-28T00:06:37.934Z,18.57
2019-03-28T00:09:08.180Z,21.65
2019-03-28T00:11:37.118Z,20.82
2019-03-28T00:14:05.579Z,22.40
2019-03-28T00:16:44.567Z,21.30
2019-03-28T00:19:20.206Z,18.55
2019-03-28T00:21:48.947Z,20.65
2019-03-28T00:24:25.772Z,19.15
2019-03-28T00:26:54.876Z,18.17
2019-03-28T00:29:27.004Z,19.15
2019-03-28T00:31:55.789Z,19.12
2019-03-28T00:34:28.896Z,17.67
2019-03-28T00:36:59.211Z,19.70
2019-03-28T00:39:28.640Z,20.40
2019-03-28T00:42:01.117Z,21.00
2019-03-28T00:44:30.341Z,18.27
2019-03-28T00:47:02.043Z,20.85
2019-03-28T00:49:31.219Z,18.70
2019-03-28T00:52:00.655Z,17.25
2019-03-28T00:54:32.197Z,15.70
2019-03-28T00:57:02.261Z,17.27
2019-03-28T00:59:31.445Z,17.15
2019-03-28T01:02:00.394Z,17.48
2019-03-28T01:04:30.819Z,17.30
2019-03-28T01:06:59.593Z,16.45
2019-03-28T01:09:28.187Z,18.20
2019-03-28T01:11:57.516Z,17.75
2019-03-28T01:14:26.265Z,18.02
2019-03-28T01:16:54.784Z,16.75
2019-03-28T01:19:23.743Z,16.87
2019-03-28T01:21:52.118Z,16.77
2019-03-28T01:24:20.835Z,17.42
2019-03-28T01:26:57.272Z,18.45
2019-03-28T01:32:09.009Z,15.98
2019-03-28T01:34:40.112Z,14.63
2019-03-28T01:37:09.065Z,17.57
2019-03-28T01:39:39.007Z,18.05
2019-03-28T01:42:09.164Z,17.42
2019-03-28T01:44:37.800Z,19.95
2019-03-28T01:47:06.201Z,18.12
2019-03-28T01:52:23.302Z,17.40
2019-03-28T01:54:52.178Z,16.50
2019-03-28T01:57:21.206Z,16.23
2019-03-28T01:59:53.118Z,16.37
2019-03-28T02:02:22.034Z,16.52
2019-03-28T02:04:52.292Z,17.12
2019-03-28T02:07:26.882Z,17.73
2019-03-28T02:12:46.615Z,15.68
2019-03-28T02:18:04.253Z,16.48
2019-03-28T02:20:32.956Z,16.73
2019-03-28T02:23:01.390Z,18.95
2019-03-28T02:25:29.802Z,16.45
2019-03-28T02:27:58.430Z,16.60
2019-03-28T02:30:31.633Z,18.17
2019-03-28T02:33:00.395Z,16.50
2019-03-28T02:35:28.795Z,17.02
2019-03-28T02:37:57.431Z,16.35
2019-03-28T02:40:25.838Z,15.18
2019-03-28T02:42:54.236Z,15.53
2019-03-28T02:45:22.646Z,14.83
2019-03-28T02:47:51.076Z,16.70
2019-03-28T02:50:19.479Z,16.45
2019-03-28T02:52:47.931Z,16.20
2019-03-28T02:55:16.383Z,16.90
2019-03-28T02:57:44.781Z,17.27
2019-03-28T03:00:13.507Z,14.70
2019-03-28T03:02:41.913Z,17.42
2019-03-28T03:05:10.454Z,16.50
2019-03-28T03:07:39.140Z,16.02
2019-03-28T03:10:08.506Z,16.05
2019-03-28T03:12:36.909Z,14.85
2019-03-28T03:15:07.508Z,14.85
2019-03-28T03:17:35.910Z,17.57
2019-03-28T03:20:06.958Z,16.12
2019-03-28T03:22:35.469Z,16.87
2019-03-28T03:25:06.558Z,16.57
2019-03-28T03:27:35.068Z,15.83
2019-03-28T03:30:07.385Z,16.05
2019-03-28T03:32:36.002Z,17.07
2019-03-28T03:35:05.480Z,17.12
2019-03-28T03:37:34.026Z,15.93
2019-03-28T03:40:02.524Z,16.25
2019-03-28T03:42:30.915Z,16.00
2019-03-28T03:44:59.315Z,16.57
2019-03-28T03:47:27.714Z,16.42
2019-03-28T03:49:57.018Z,15.32
2019-03-28T03:52:25.396Z,17.12
2019-03-28T03:54:53.901Z,16.10
2019-03-28T03:57:22.530Z,15.90
2019-03-28T03:59:50.957Z,16.20
2019-03-28T04:02:19.408Z,16.45
2019-03-28T04:04:48.026Z,14.73
2019-03-28T04:07:16.714Z,15.50
2019-03-28T04:09:45.139Z,16.30
2019-03-28T04:12:13.545Z,15.00
2019-03-28T04:14:42.039Z,14.95
2019-03-28T04:17:10.425Z,15.35
2019-03-28T04:19:38.825Z,15.88
2019-03-28T04:22:07.215Z,17.07
2019-03-28T04:24:35.852Z,15.25
2019-03-28T04:27:04.272Z,15.43
2019-03-28T04:29:32.919Z,15.48
2019-03-28T04:32:01.334Z,16.17
2019-03-28T04:34:29.740Z,15.40
2019-03-28T04:36:58.157Z,15.40
2019-03-28T04:39:26.801Z,16.10
2019-03-28T04:41:55.205Z,15.43
2019-03-28T04:44:23.609Z,16.35
2019-03-28T04:46:52.004Z,15.68
2019-03-28T04:49:20.402Z,15.88
2019-03-28T04:51:48.802Z,15.85
2019-03-28T04:54:17.287Z,15.20
2019-03-28T04:56:46.159Z,15.03
2019-03-28T04:59:15.432Z,15.63
2019-03-28T05:01:43.972Z,15.03
2019-03-28T05:04:12.375Z,15.98
2019-03-28T05:06:41.015Z,15.50
2019-03-28T05:09:09.418Z,16.65
2019-03-28T05:11:38.046Z,15.25
2019-03-28T05:14:06.529Z,17.30
2019-03-28T05:16:34.931Z,15.98
2019-03-28T05:19:03.453Z,15.65
2019-03-28T05:21:31.844Z,14.98
2019-03-28T05:24:00.476Z,15.58
2019-03-28T05:26:29.116Z,15.43
2019-03-28T05:28:58.839Z,15.72
2019-03-28T05:31:27.882Z,16.00
2019-03-28T05:33:56.277Z,16.00
2019-03-28T05:36:24.930Z,16.00
2019-03-28T05:38:53.350Z,16.67
2019-03-28T05:41:22.719Z,17.15
2019-03-28T05:43:51.232Z,16.65
2019-03-28T05:46:19.718Z,17.02
2019-03-28T05:48:48.190Z,16.12
2019-03-28T05:51:16.681Z,15.55
2019-03-28T05:53:45.081Z,16.35
2019-03-28T05:56:13.489Z,16.60
2019-03-28T05:58:41.880Z,15.88
2019-03-28T06:01:10.269Z,16.93
2019-03-28T06:03:38.667Z,16.55
2019-03-28T06:06:07.074Z,16.17
2019-03-28T06:08:35.470Z,17.35
2019-03-28T06:11:03.881Z,17.60
2019-03-28T06:13:32.274Z,16.48
2019-03-28T06:16:00.741Z,17.07
2019-03-28T06:18:29.371Z,16.07
2019-03-28T06:20:59.588Z,14.38
2019-03-28T06:23:27.912Z,15.90
2019-03-28T06:25:56.311Z,16.00
2019-03-28T06:28:25.336Z,16.77
2019-03-28T06:30:55.953Z,15.75
2019-03-28T06:33:24.276Z,15.28
2019-03-28T06:35:52.927Z,15.35
2019-03-28T06:38:21.623Z,14.93
2019-03-28T06:40:50.022Z,15.83
2019-03-28T06:43:18.444Z,16.30
2019-03-28T06:45:46.834Z,15.72
2019-03-28T06:48:15.262Z,17.25
2019-03-28T06:50:43.892Z,16.70
2019-03-28T06:53:12.650Z,15.50
2019-03-28T06:55:41.511Z,15.45
2019-03-28T06:58:09.910Z,15.88
2019-03-28T07:00:38.617Z,16.85
2019-03-28T07:03:07.027Z,17.07
2019-03-28T07:05:35.437Z,16.27
2019-03-28T07:08:04.146Z,18.15
2019-03-28T07:10:32.553Z,16.85
2019-03-28T07:13:00.970Z,16.97
2019-03-28T07:15:29.360Z,16.93
2019-03-28T07:17:57.760Z,18.48
2019-03-28T07:20:26.452Z,17.98
2019-03-28T07:22:55.124Z,21.25
2019-03-28T07:25:25.569Z,19.35
2019-03-28T07:27:53.895Z,18.42
2019-03-28T07:30:22.442Z,18.07
2019-03-28T07:32:51.076Z,21.65
2019-03-28T07:35:19.714Z,26.95
2019-03-28T07:37:48.123Z,19.12
2019-03-28T07:40:16.677Z,19.98
2019-03-28T07:42:45.102Z,20.65
2019-03-28T07:45:13.645Z,20.20
2019-03-28T07:47:42.122Z,20.92
2019-03-28T07:50:12.465Z,20.70
2019-03-28T07:52:40.862Z,22.82
2019-03-28T07:55:10.552Z,22.45
2019-03-28T07:57:38.981Z,23.92
2019-03-28T08:00:12.016Z,22.67
2019-03-28T08:02:40.677Z,24.60
2019-03-28T08:05:11.075Z,21.85
2019-03-28T08:07:45.308Z,22.73
2019-03-28T08:10:10.190Z,24.95
2019-03-28T08:12:38.622Z,23.27
2019-03-28T08:15:10.431Z,26.23
2019-03-28T08:17:38.958Z,26.63
2019-03-28T08:20:09.574Z,26.13
2019-03-28T08:22:38.006Z,22.30
2019-03-28T08:25:11.970Z,24.57
2019-03-28T08:27:40.386Z,23.40
2019-03-28T08:30:18.042Z,25.17
2019-03-28T08:32:41.111Z,26.03
2019-03-28T08:35:10.702Z,28.37
2019-03-28T08:37:40.025Z,28.60
2019-03-28T08:40:09.263Z,28.50
2019-03-28T08:42:37.751Z,28.20
2019-03-28T08:45:07.221Z,28.13
2019-03-28T08:47:35.739Z,27.70
2019-03-28T08:50:06.579Z,31.13
2019-03-28T08:52:34.990Z,29.80
2019-03-28T08:55:05.582Z,31.10
2019-03-28T08:57:33.989Z,32.93
2019-03-28T09:00:02.557Z,31.93
2019-03-28T09:02:31.014Z,33.03
2019-03-28T09:04:59.651Z,32.87
2019-03-28T09:07:28.082Z,31.20
2019-03-28T09:09:56.531Z,29.47
2019-03-28T09:12:24.946Z,32.47
2019-03-28T09:14:53.359Z,32.70
2019-03-28T09:17:23.809Z,30.70
2019-03-28T09:19:51.938Z,30.63
2019-03-28T09:22:20.381Z,33.00
2019-03-28T09:24:48.806Z,30.20
2019-03-28T09:27:17.459Z,30.10
2019-03-28T09:29:46.116Z,29.00
2019-03-28T09:32:14.907Z,27.10
2019-03-28T09:34:43.321Z,28.47
2019-03-28T09:37:11.810Z,27.17
2019-03-28T09:39:40.235Z,28.40
2019-03-28T09:42:08.621Z,26.67
2019-03-28T09:44:37.098Z,23.73
2019-03-28T09:47:05.504Z,23.27
2019-03-28T09:49:33.926Z,20.20
2019-03-28T09:52:02.333Z,13.83
2019-03-28T09:54:30.753Z,11.03
2019-03-28T09:56:59.168Z,13.67
2019-03-28T09:59:27.581Z,14.00
2019-03-28T10:01:55.979Z,9.33
2019-03-28T10:04:24.378Z,7.80
2019-03-28T10:06:52.785Z,6.50
2019-03-28T10:09:21.186Z,6.50
2019-03-28T10:11:49.835Z,7.90
2019-03-28T10:14:18.233Z,7.33
2019-03-28T10:16:46.879Z,6.10
2019-03-28T10:19:15.289Z,6.43
2019-03-28T10:21:43.698Z,6.30
2019-03-28T10:24:12.122Z,8.00
2019-03-28T10:26:40.544Z,6.57
2019-03-28T10:29:09.190Z,7.97
2019-03-28T10:31:37.726Z,9.53
2019-03-28T10:34:06.170Z,9.57
2019-03-28T10:36:34.580Z,11.37
2019-03-28T10:39:04.750Z,11.70
2019-03-28T10:41:33.403Z,12.93
2019-03-28T10:44:01.797Z,11.43
2019-03-28T10:46:30.602Z,11.23
2019-03-28T10:48:59.092Z,11.90
2019-03-28T10:51:27.496Z,13.10
2019-03-28T10:54:20.449Z,11.77
2019-03-28T10:56:51.596Z,12.07
2019-03-28T10:59:23.236Z,12.10
2019-03-28T11:01:50.072Z,10.60
2019-03-28T11:04:15.292Z,11.10
2019-03-28T11:06:43.688Z,11.27
2019-03-28T11:09:12.087Z,11.20
2019-03-28T11:11:40.501Z,10.10
2019-03-28T11:14:08.898Z,10.60
2019-03-28T11:16:37.395Z,11.50
2019-03-28T11:19:05.794Z,10.90
2019-03-28T11:21:34.443Z,8.97
2019-03-28T11:24:02.887Z,11.60
2019-03-28T11:26:31.554Z,10.70
2019-03-28T11:29:01.133Z,8.90
2019-03-28T11:31:29.614Z,10.13
2019-03-28T11:34:00.002Z,10.10
2019-03-28T11:36:28.414Z,10.30
2019-03-28T11:38:56.810Z,10.53
2019-03-28T11:41:25.219Z,11.27
2019-03-28T11:43:53.876Z,10.47
2019-03-28T11:46:22.290Z,11.70
2019-03-28T11:48:50.672Z,10.50
2019-03-28T11:51:19.086Z,10.33
2019-03-28T11:53:47.481Z,11.27
2019-03-28T11:56:15.885Z,10.40
2019-03-28T11:58:44.294Z,10.30
2019-03-28T12:01:12.694Z,8.93
2019-03-28T12:03:41.089Z,8.57
2019-03-28T12:06:10.767Z,9.90
2019-03-28T12:08:39.320Z,10.57
2019-03-28T12:11:07.742Z,8.37
2019-03-28T12:13:44.819Z,11.47
2019-03-28T12:16:06.286Z,12.23
2019-03-28T12:18:34.699Z,11.97
2019-03-28T12:21:03.105Z,10.30
2019-03-28T12:23:31.800Z,10.27
2019-03-28T12:26:00.209Z,10.67
2019-03-28T12:28:28.609Z,11.87
2019-03-28T12:30:57.024Z,11.20
2019-03-28T12:33:25.459Z,10.20
2019-03-28T12:35:53.885Z,11.43
2019-03-28T12:38:22.300Z,10.50
2019-03-28T12:40:51.343Z,11.90
2019-03-28T12:43:19.808Z,12.37
2019-03-28T12:45:48.223Z,12.77
2019-03-28T12:48:16.980Z,12.43
2019-03-28T12:50:58.019Z,12.37
2019-03-28T12:53:15.587Z,12.40
2019-03-28T12:55:56.963Z,13.07
2019-03-28T12:58:25.385Z,18.33
2019-03-28T13:00:53.802Z,16.30
2019-03-28T13:03:22.189Z,16.60
2019-03-28T13:05:50.611Z,15.53
2019-03-28T13:08:19.286Z,14.50
2019-03-28T13:10:47.938Z,15.53
2019-03-28T13:13:16.357Z,14.80
2019-03-28T13:15:44.843Z,14.90
2019-03-28T13:18:13.239Z,13.07
2019-03-28T13:20:41.875Z,13.87
2019-03-28T13:23:10.278Z,14.00
2019-03-28T13:25:38.939Z,14.53
2019-03-28T13:28:07.358Z,16.83
2019-03-28T13:30:35.749Z,14.43
2019-03-28T13:33:04.170Z,14.23
2019-03-28T13:35:35.022Z,14.43
2019-03-28T13:38:03.986Z,15.17
2019-03-28T13:40:32.641Z,16.50
2019-03-28T13:43:01.046Z,16.13
2019-03-28T13:45:29.452Z,16.27
2019-03-28T13:47:58.174Z,15.33
2019-03-28T13:50:27.422Z,17.10
2019-03-28T13:52:56.067Z,16.73
2019-03-28T13:55:24.466Z,17.47
2019-03-28T13:57:52.887Z,19.40
2019-03-28T14:00:24.405Z,18.47
2019-03-28T14:02:58.428Z,18.97
2019-03-28T14:05:23.297Z,19.43
2019-03-28T14:07:51.781Z,17.90
2019-03-28T14:10:21.729Z,18.03
2019-03-28T14:12:50.523Z,18.07
2019-03-28T14:15:18.951Z,18.70
2019-03-28T14:17:47.354Z,19.50
2019-03-28T14:20:16.146Z,19.73
2019-03-28T14:22:44.601Z,18.70
2019-03-28T14:25:13.006Z,18.63
2019-03-28T14:27:41.646Z,17.60
2019-03-28T14:30:11.439Z,19.03
2019-03-28T14:32:52.524Z,19.70
2019-03-28T14:35:10.818Z,17.57
2019-03-28T14:37:40.833Z,17.07
2019-03-28T14:40:10.588Z,17.77
2019-03-28T14:42:38.988Z,16.63
2019-03-28T14:45:10.540Z,18.60
2019-03-28T14:47:39.014Z,18.00
2019-03-28T14:50:08.764Z,16.30
2019-03-28T14:52:37.277Z,17.90
2019-03-28T14:55:05.927Z,17.10
2019-03-28T14:57:34.559Z,16.53
2019-03-28T15:00:05.473Z,15.30
2019-03-28T15:02:33.890Z,14.90
2019-03-28T15:05:02.363Z,14.80
2019-03-28T15:07:31.061Z,13.90
2019-03-28T15:09:59.722Z,14.47
2019-03-28T15:12:28.141Z,15.10
2019-03-28T15:14:56.557Z,16.63
2019-03-28T15:17:24.966Z,13.07
2019-03-28T15:19:53.377Z,12.87
2019-03-28T15:22:21.857Z,13.13
2019-03-28T15:24:50.266Z,14.13
2019-03-28T15:27:18.671Z,12.30
2019-03-28T15:29:47.075Z,13.10
2019-03-28T15:32:15.487Z,13.40
2019-03-28T15:34:43.887Z,12.77
2019-03-28T15:37:12.303Z,12.20
2019-03-28T15:39:40.716Z,11.87
2019-03-28T15:42:09.371Z,12.23
2019-03-28T15:44:39.387Z,14.90
2019-03-28T15:47:07.969Z,13.13
2019-03-28T15:49:36.381Z,12.83
2019-03-28T15:52:05.222Z,14.27
2019-03-28T15:54:34.060Z,12.60
2019-03-28T15:57:02.464Z,14.70
2019-03-28T15:59:30.933Z,12.33
2019-03-28T16:02:00.067Z,13.27
2019-03-28T16:04:28.576Z,14.23
2019-03-28T16:06:56.982Z,13.10
2019-03-28T16:09:25.394Z,15.80
2019-03-28T16:12:02.461Z,13.47
2019-03-28T16:14:24.242Z,13.90
2019-03-28T16:16:52.654Z,15.93
2019-03-28T16:19:21.049Z,16.13
2019-03-28T16:21:49.703Z,13.50
2019-03-28T16:24:18.125Z,14.87
2019-03-28T16:26:46.539Z,15.87
2019-03-28T16:29:14.957Z,14.30
2019-03-28T16:31:43.426Z,14.63
2019-03-28T16:34:11.858Z,14.17
2019-03-28T16:36:40.260Z,14.23
2019-03-28T16:39:08.915Z,14.77
2019-03-28T16:41:37.378Z,13.77
2019-03-28T16:44:06.126Z,15.30
2019-03-28T16:46:34.529Z,13.87
2019-03-28T16:49:02.968Z,13.97
2019-03-28T16:51:31.624Z,14.40
2019-03-28T16:54:00.018Z,14.43
2019-03-28T16:56:28.494Z,13.43
2019-03-28T16:58:56.920Z,14.30
2019-03-28T17:01:25.318Z,12.90
2019-03-28T17:03:53.737Z,12.30
2019-03-28T17:06:22.673Z,13.67
2019-03-28T17:08:52.563Z,11.80
2019-03-28T17:11:21.054Z,11.33
2019-03-28T17:13:49.467Z,11.27
2019-03-28T17:16:18.130Z,11.20
2019-03-28T17:18:46.889Z,11.87
2019-03-28T17:21:15.385Z,11.47
2019-03-28T17:23:43.821Z,10.70
2019-03-28T17:26:12.228Z,10.70
2019-03-28T17:28:40.653Z,12.03
2019-03-28T17:31:09.065Z,10.27
2019-03-28T17:33:37.472Z,10.50
2019-03-28T17:36:06.116Z,11.83
2019-03-28T17:38:34.769Z,10.10
2019-03-28T17:41:06.407Z,11.15
2019-03-28T17:43:33.636Z,14.37
2019-03-28T17:46:02.279Z,11.68
2019-03-28T17:48:30.957Z,12.57
2019-03-28T17:50:59.701Z,11.97
2019-03-28T17:53:28.114Z,9.75
2019-03-28T17:55:56.774Z,9.48
2019-03-28T17:58:25.420Z,8.63
2019-03-28T18:00:53.947Z,8.88
2019-03-28T18:03:31.009Z,10.58
2019-03-28T18:05:58.303Z,8.85
2019-03-28T18:08:22.937Z,9.48
2019-03-28T18:10:51.340Z,8.87
2019-03-28T18:13:19.750Z,9.90
2019-03-28T18:15:48.160Z,8.78
2019-03-28T18:18:16.565Z,8.40
2019-03-28T18:20:44.993Z,7.28
2019-03-28T18:23:13.409Z,9.63
2019-03-28T18:25:41.816Z,9.13
2019-03-28T18:28:10.238Z,8.23
2019-03-28T18:30:38.646Z,9.50
2019-03-28T18:33:07.110Z,9.13
2019-03-28T18:35:35.587Z,9.55
2019-03-28T18:38:04.058Z,9.78
2019-03-28T18:40:32.706Z,9.45
2019-03-28T18:43:01.652Z,10.08
2019-03-28T18:45:30.131Z,10.55
2019-03-28T18:47:58.563Z,11.40
2019-03-28T18:50:26.972Z,11.20
2019-03-28T18:52:55.382Z,11.18
2019-03-28T18:55:23.791Z,10.80
2019-03-28T18:57:52.206Z,15.45
2019-03-28T19:00:21.078Z,14.75
2019-03-28T19:02:49.482Z,14.80
2019-03-28T19:05:19.987Z,11.78
2019-03-28T19:07:48.054Z,10.88
2019-03-28T19:10:16.607Z,10.50
2019-03-28T19:12:45.035Z,10.75
2019-03-28T19:15:13.673Z,11.10
2019-03-28T19:17:42.316Z,11.65
2019-03-28T19:20:11.640Z,11.40
2019-03-28T19:22:40.085Z,11.80
2019-03-28T19:25:09.507Z,10.98
2019-03-28T19:27:38.467Z,13.35
2019-03-28T19:30:08.942Z,12.82
2019-03-28T19:32:37.597Z,12.78
2019-03-28T19:35:08.412Z,12.85
2019-03-28T19:37:40.585Z,12.03
2019-03-28T19:40:10.286Z,11.55
2019-03-28T19:42:39.265Z,11.12
2019-03-28T19:45:07.997Z,12.37
2019-03-28T19:47:36.826Z,11.75
2019-03-28T19:50:07.622Z,13.58
2019-03-28T19:52:36.579Z,15.72
2019-03-28T19:55:06.441Z,14.63
2019-03-28T19:57:34.927Z,14.78
2019-03-28T20:00:04.703Z,15.08
2019-03-28T20:02:33.717Z,12.75
2019-03-28T20:05:02.235Z,12.55
2019-03-28T20:07:30.636Z,13.85
2019-03-28T20:09:59.279Z,12.73
2019-03-28T20:12:27.962Z,13.83
2019-03-28T20:14:59.943Z,12.90
2019-03-28T20:17:26.865Z,14.05
2019-03-28T20:19:55.301Z,13.03
2019-03-28T20:22:23.947Z,12.65
2019-03-28T20:24:52.350Z,12.82
2019-03-28T20:27:21.026Z,13.83
2019-03-28T20:29:49.430Z,12.80
2019-03-28T20:32:17.945Z,12.10
2019-03-28T20:34:48.887Z,11.70
2019-03-28T20:37:16.467Z,12.15
2019-03-28T20:39:45.123Z,11.68
2019-03-28T20:42:13.812Z,12.00
2019-03-28T20:44:42.482Z,11.90
2019-03-28T20:47:10.883Z,12.07
2019-03-28T20:49:39.521Z,12.45
2019-03-28T20:52:09.388Z,12.37
2019-03-28T20:54:38.217Z,12.40
2019-03-28T20:57:06.617Z,12.37
2019-03-28T20:59:35.031Z,12.05
2019-03-28T21:02:03.435Z,14.30
2019-03-28T21:04:32.098Z,15.28
2019-03-28T21:07:00.645Z,13.00
2019-03-28T21:09:29.319Z,13.65
2019-03-28T21:11:57.947Z,15.00
2019-03-28T21:14:26.362Z,14.30
2019-03-28T21:16:57.927Z,13.00
2019-03-28T21:19:24.957Z,14.60
2019-03-28T21:21:54.892Z,14.53
2019-03-28T21:24:23.630Z,14.75
2019-03-28T21:26:52.013Z,12.68
2019-03-28T21:29:20.407Z,13.72
2019-03-28T21:31:50.285Z,14.43
2019-03-28T21:34:18.982Z,12.18
2019-03-28T21:36:47.628Z,13.05
2019-03-28T21:39:16.060Z,15.10
2019-03-28T21:41:44.447Z,13.43
2019-03-28T21:44:12.847Z,13.13
2019-03-28T21:46:41.471Z,13.30
2019-03-28T21:49:10.146Z,12.82
2019-03-28T21:51:38.530Z,13.90
2019-03-28T21:54:07.163Z,14.38
2019-03-28T21:56:35.582Z,16.02
2019-03-28T21:59:03.980Z,16.10
2019-03-28T22:01:39.628Z,14.53
2019-03-28T22:04:08.993Z,14.15
2019-03-28T22:06:42.766Z,13.98
2019-03-28T22:09:07.825Z,13.13
2019-03-28T22:11:36.475Z,12.93
2019-03-28T22:14:04.944Z,14.93
2019-03-28T22:16:33.338Z,15.32
2019-03-28T22:19:05.039Z,13.05
2019-03-28T22:21:32.150Z,12.75
2019-03-28T22:24:00.799Z,15.23
2019-03-28T22:26:29.223Z,16.17
2019-03-28T22:28:57.878Z,13.45
2019-03-28T22:31:26.522Z,13.75
2019-03-28T22:33:54.922Z,13.78
2019-03-28T22:36:23.321Z,13.72
2019-03-28T22:38:51.723Z,12.55
2019-03-28T22:41:20.123Z,14.47
2019-03-28T22:43:48.549Z,13.08
2019-03-28T22:46:17.238Z,13.65
2019-03-28T22:48:45.636Z,13.03
2019-03-28T22:51:14.107Z,13.95
2019-03-28T22:53:42.513Z,12.78
2019-03-28T22:56:10.907Z,12.50
2019-03-28T22:58:40.249Z,11.78
2019-03-28T23:01:09.122Z,13.03
2019-03-28T23:03:37.525Z,13.50
2019-03-28T23:06:06.157Z,14.50
2019-03-28T23:08:35.030Z,15.40
2019-03-28T23:11:03.787Z,14.33
2019-03-28T23:13:32.451Z,14.05
2019-03-28T23:16:01.177Z,13.80
2019-03-28T23:18:29.635Z,15.55
2019-03-28T23:20:58.092Z,13.78
2019-03-28T23:23:26.562Z,16.65
2019-03-28T23:25:56.013Z,16.70
2019-03-28T23:28:24.772Z,17.27
2019-03-28T23:30:53.312Z,14.38
2019-03-28T23:33:21.857Z,16.00
2019-03-28T23:35:50.867Z,14.10
2019-03-28T23:38:20.007Z,13.85
2019-03-28T23:40:48.781Z,18.45
2019-03-28T23:43:17.423Z,18.80
2019-03-28T23:45:46.646Z,16.67
2019-03-28T23:48:15.395Z,15.32
2019-03-28T23:50:43.805Z,14.87
2019-03-28T23:53:12.327Z,16.02
2019-03-28T23:55:41.095Z,15.48
2019-03-28T23:58:09.761Z,15.53
